sensor_id;sensor_type;location;lat;lon;timestamp;P1;durP1;ratioP1;P2;durP2;ratioP2
56712;SDS011;42589;45.536;9.032;2023-04-25T00:01:08;2.80;;;2.20;;
56712;SDS011;42589;45.536;9.032;2023-04-25T00:04:09;3.83;;;2.30;;
56712;SDS011;42589;45.536;9.032;2023-04-25T00:07:11;4.00;;;2.00;;
56712;SDS011;42589;45.536;9.032;2023-04-25T00:10:12;3.00;;;2.00;;
56712;SDS011;42589;45.536;9.032;2023-04-25T00:13:13;2.00;;;1.83;;
56712;SDS011;42589;45.536;9.032;2023-04-25T00:16:13;2.10;;;1.90;;
56712;SDS011;42589;45.536;9.032;2023-04-25T00:19:15;3.00;;;2.10;;
56712;SDS011;42589;45.536;9.032;2023-04-25T00:22:16;2.80;;;1.95;;
56712;SDS011;42589;45.536;9.032;2023-04-25T00:25:17;3.45;;;2.40;;
56712;SDS011;42589;45.536;9.032;2023-04-25T00:28:19;2.45;;;1.90;;
56712;SDS011;42589;45.536;9.032;2023-04-25T00:31:19;2.35;;;2.00;;
56712;SDS011;42589;45.536;9.032;2023-04-25T00:34:20;3.15;;;1.80;;
56712;SDS011;42589;45.536;9.032;2023-04-25T00:37:20;2.60;;;2.00;;
56712;SDS011;42589;45.536;9.032;2023-04-25T00:40:24;2.03;;;1.92;;
56712;SDS011;42589;45.536;9.032;2023-04-25T00:43:31;3.63;;;2.20;;
56712;SDS011;42589;45.536;9.032;2023-04-25T00:46:33;2.15;;;1.80;;
56712;SDS011;42589;45.536;9.032;2023-04-25T00:49:35;2.88;;;2.13;;
56712;SDS011;42589;45.536;9.032;2023-04-25T00:52:37;3.28;;;2.08;;
56712;SDS011;42589;45.536;9.032;2023-04-25T00:55:40;2.13;;;1.85;;
56712;SDS011;42589;45.536;9.032;2023-04-25T00:58:41;2.00;;;1.83;;
56712;SDS011;42589;45.536;9.032;2023-04-25T01:01:42;2.08;;;1.98;;
56712;SDS011;42589;45.536;9.032;2023-04-25T01:04:44;4.35;;;1.92;;
56712;SDS011;42589;45.536;9.032;2023-04-25T01:07:45;2.10;;;1.85;;
56712;SDS011;42589;45.536;9.032;2023-04-25T01:10:46;3.70;;;2.05;;
56712;SDS011;42589;45.536;9.032;2023-04-25T01:13:46;2.53;;;2.00;;
56712;SDS011;42589;45.536;9.032;2023-04-25T01:16:51;2.55;;;1.80;;
56712;SDS011;42589;45.536;9.032;2023-04-25T01:19:53;2.10;;;1.83;;
56712;SDS011;42589;45.536;9.032;2023-04-25T01:22:54;2.10;;;1.70;;
56712;SDS011;42589;45.536;9.032;2023-04-25T01:25:55;3.63;;;1.80;;
56712;SDS011;42589;45.536;9.032;2023-04-25T01:28:56;2.92;;;1.85;;
56712;SDS011;42589;45.536;9.032;2023-04-25T01:31:58;2.10;;;1.88;;
56712;SDS011;42589;45.536;9.032;2023-04-25T01:34:59;2.22;;;1.83;;
56712;SDS011;42589;45.536;9.032;2023-04-25T01:38:00;4.65;;;1.90;;
56712;SDS011;42589;45.536;9.032;2023-04-25T01:41:01;4.75;;;2.00;;
56712;SDS011;42589;45.536;9.032;2023-04-25T01:44:03;3.25;;;2.00;;
56712;SDS011;42589;45.536;9.032;2023-04-25T01:47:04;2.25;;;1.90;;
56712;SDS011;42589;45.536;9.032;2023-04-25T01:50:05;2.10;;;1.90;;
56712;SDS011;42589;45.536;9.032;2023-04-25T01:53:08;3.60;;;2.20;;
56712;SDS011;42589;45.536;9.032;2023-04-25T01:56:10;3.65;;;2.30;;
56712;SDS011;42589;45.536;9.032;2023-04-25T01:59:11;4.50;;;2.30;;
56712;SDS011;42589;45.536;9.032;2023-04-25T02:02:13;2.95;;;2.35;;
56712;SDS011;42589;45.536;9.032;2023-04-25T02:05:14;2.80;;;2.47;;
56712;SDS011;42589;45.536;9.032;2023-04-25T02:08:15;3.40;;;2.63;;
56712;SDS011;42589;45.536;9.032;2023-04-25T02:11:17;3.10;;;2.80;;
56712;SDS011;42589;45.536;9.032;2023-04-25T02:14:18;4.05;;;2.63;;
56712;SDS011;42589;45.536;9.032;2023-04-25T02:17:19;3.40;;;3.05;;
56712;SDS011;42589;45.536;9.032;2023-04-25T02:20:22;3.83;;;2.70;;
56712;SDS011;42589;45.536;9.032;2023-04-25T02:23:23;3.85;;;2.70;;
56712;SDS011;42589;45.536;9.032;2023-04-25T02:26:24;5.93;;;3.08;;
56712;SDS011;42589;45.536;9.032;2023-04-25T02:29:25;3.13;;;2.72;;
56712;SDS011;42589;45.536;9.032;2023-04-25T02:32:26;3.35;;;2.70;;
56712;SDS011;42589;45.536;9.032;2023-04-25T02:35:26;3.28;;;2.60;;
56712;SDS011;42589;45.536;9.032;2023-04-25T02:38:27;4.80;;;2.65;;
56712;SDS011;42589;45.536;9.032;2023-04-25T02:41:28;4.75;;;3.08;;
56712;SDS011;42589;45.536;9.032;2023-04-25T02:44:29;3.55;;;2.72;;
56712;SDS011;42589;45.536;9.032;2023-04-25T02:47:30;2.92;;;2.60;;
56712;SDS011;42589;45.536;9.032;2023-04-25T02:50:30;3.25;;;2.80;;
56712;SDS011;42589;45.536;9.032;2023-04-25T02:53:31;2.92;;;2.45;;
56712;SDS011;42589;45.536;9.032;2023-04-25T02:56:32;2.83;;;2.50;;
56712;SDS011;42589;45.536;9.032;2023-04-25T02:59:33;2.63;;;2.42;;
56712;SDS011;42589;45.536;9.032;2023-04-25T03:02:34;4.35;;;2.60;;
56712;SDS011;42589;45.536;9.032;2023-04-25T03:05:36;2.83;;;2.38;;
56712;SDS011;42589;45.536;9.032;2023-04-25T03:08:37;3.85;;;2.42;;
56712;SDS011;42589;45.536;9.032;2023-04-25T03:11:38;3.13;;;2.83;;
56712;SDS011;42589;45.536;9.032;2023-04-25T03:14:39;3.10;;;2.45;;
56712;SDS011;42589;45.536;9.032;2023-04-25T03:17:40;3.13;;;2.20;;
56712;SDS011;42589;45.536;9.032;2023-04-25T03:20:41;2.97;;;2.70;;
56712;SDS011;42589;45.536;9.032;2023-04-25T03:23:41;4.35;;;2.80;;
56712;SDS011;42589;45.536;9.032;2023-04-25T03:26:42;2.95;;;2.65;;
56712;SDS011;42589;45.536;9.032;2023-04-25T03:29:43;4.07;;;3.05;;
56712;SDS011;42589;45.536;9.032;2023-04-25T03:32:44;3.47;;;2.92;;
56712;SDS011;42589;45.536;9.032;2023-04-25T03:35:45;2.80;;;2.60;;
56712;SDS011;42589;45.536;9.032;2023-04-25T03:38:45;3.70;;;2.78;;
56712;SDS011;42589;45.536;9.032;2023-04-25T03:41:46;4.18;;;3.20;;
56712;SDS011;42589;45.536;9.032;2023-04-25T03:44:47;3.15;;;2.83;;
56712;SDS011;42589;45.536;9.032;2023-04-25T03:47:48;6.75;;;2.70;;
56712;SDS011;42589;45.536;9.032;2023-04-25T03:50:49;2.95;;;2.35;;
56712;SDS011;42589;45.536;9.032;2023-04-25T03:53:49;3.28;;;2.65;;
56712;SDS011;42589;45.536;9.032;2023-04-25T03:56:50;3.15;;;2.83;;
56712;SDS011;42589;45.536;9.032;2023-04-25T03:59:51;3.90;;;2.83;;
56712;SDS011;42589;45.536;9.032;2023-04-25T04:02:52;3.03;;;2.72;;
56712;SDS011;42589;45.536;9.032;2023-04-25T04:05:52;3.13;;;2.80;;
56712;SDS011;42589;45.536;9.032;2023-04-25T04:08:53;3.45;;;2.67;;
56712;SDS011;42589;45.536;9.032;2023-04-25T04:11:54;3.35;;;2.70;;
56712;SDS011;42589;45.536;9.032;2023-04-25T04:14:55;2.83;;;2.58;;
56712;SDS011;42589;45.536;9.032;2023-04-25T04:17:57;3.08;;;2.50;;
56712;SDS011;42589;45.536;9.032;2023-04-25T04:21:02;3.50;;;2.60;;
56712;SDS011;42589;45.536;9.032;2023-04-25T04:24:03;2.50;;;2.30;;
56712;SDS011;42589;45.536;9.032;2023-04-25T04:27:05;5.65;;;2.67;;
56712;SDS011;42589;45.536;9.032;2023-04-25T04:30:07;3.67;;;2.65;;
56712;SDS011;42589;45.536;9.032;2023-04-25T04:33:08;3.15;;;2.85;;
56712;SDS011;42589;45.536;9.032;2023-04-25T04:36:09;4.82;;;3.20;;
56712;SDS011;42589;45.536;9.032;2023-04-25T04:39:09;3.30;;;3.00;;
56712;SDS011;42589;45.536;9.032;2023-04-25T04:42:11;4.57;;;2.97;;
56712;SDS011;42589;45.536;9.032;2023-04-25T04:45:11;4.30;;;3.50;;
56712;SDS011;42589;45.536;9.032;2023-04-25T04:48:12;5.97;;;3.90;;
56712;SDS011;42589;45.536;9.032;2023-04-25T04:51:14;6.10;;;3.80;;
56712;SDS011;42589;45.536;9.032;2023-04-25T04:54:15;4.90;;;3.65;;
56712;SDS011;42589;45.536;9.032;2023-04-25T04:57:15;4.45;;;3.97;;
56712;SDS011;42589;45.536;9.032;2023-04-25T05:00:16;5.55;;;3.97;;
56712;SDS011;42589;45.536;9.032;2023-04-25T05:03:18;4.68;;;3.92;;
56712;SDS011;42589;45.536;9.032;2023-04-25T05:06:19;4.00;;;3.50;;
56712;SDS011;42589;45.536;9.032;2023-04-25T05:09:20;4.55;;;3.83;;
56712;SDS011;42589;45.536;9.032;2023-04-25T05:13:20;4.50;;;3.95;;
56712;SDS011;42589;45.536;9.032;2023-04-25T05:17:19;4.47;;;3.72;;
56712;SDS011;42589;45.536;9.032;2023-04-25T05:20:36;7.20;;;5.38;;
56712;SDS011;42589;45.536;9.032;2023-04-25T05:23:37;7.18;;;5.70;;
56712;SDS011;42589;45.536;9.032;2023-04-25T05:26:38;7.63;;;5.15;;
56712;SDS011;42589;45.536;9.032;2023-04-25T05:29:38;6.25;;;4.50;;
56712;SDS011;42589;45.536;9.032;2023-04-25T05:32:39;6.35;;;4.30;;
56712;SDS011;42589;45.536;9.032;2023-04-25T05:35:40;6.15;;;4.47;;
56712;SDS011;42589;45.536;9.032;2023-04-25T05:38:41;6.15;;;4.10;;
56712;SDS011;42589;45.536;9.032;2023-04-25T05:42:00;6.53;;;4.50;;
56712;SDS011;42589;45.536;9.032;2023-04-25T05:45:08;7.13;;;4.50;;
56712;SDS011;42589;45.536;9.032;2023-04-25T05:48:09;7.28;;;4.97;;
56712;SDS011;42589;45.536;9.032;2023-04-25T05:51:10;5.10;;;4.53;;
56712;SDS011;42589;45.536;9.032;2023-04-25T05:54:11;5.63;;;4.90;;
56712;SDS011;42589;45.536;9.032;2023-04-25T05:57:19;5.13;;;4.57;;
56712;SDS011;42589;45.536;9.032;2023-04-25T06:00:20;6.40;;;5.25;;
56712;SDS011;42589;45.536;9.032;2023-04-25T06:03:22;5.70;;;4.32;;
56712;SDS011;42589;45.536;9.032;2023-04-25T06:06:23;5.53;;;4.20;;
56712;SDS011;42589;45.536;9.032;2023-04-25T06:09:24;5.45;;;4.00;;
56712;SDS011;42589;45.536;9.032;2023-04-25T06:12:26;5.13;;;3.42;;
56712;SDS011;42589;45.536;9.032;2023-04-25T06:15:27;4.97;;;3.67;;
56712;SDS011;42589;45.536;9.032;2023-04-25T06:18:28;5.00;;;2.92;;
56712;SDS011;42589;45.536;9.032;2023-04-25T06:21:29;4.28;;;3.10;;
56712;SDS011;42589;45.536;9.032;2023-04-25T06:24:31;5.70;;;3.22;;
56712;SDS011;42589;45.536;9.032;2023-04-25T06:27:33;5.28;;;3.38;;
56712;SDS011;42589;45.536;9.032;2023-04-25T06:30:34;3.60;;;2.33;;
56712;SDS011;42589;45.536;9.032;2023-04-25T06:33:35;2.33;;;1.88;;
56712;SDS011;42589;45.536;9.032;2023-04-25T06:36:35;6.20;;;2.03;;
56712;SDS011;42589;45.536;9.032;2023-04-25T06:39:36;3.08;;;1.73;;
56712;SDS011;42589;45.536;9.032;2023-04-25T06:42:37;2.08;;;1.58;;
56712;SDS011;42589;45.536;9.032;2023-04-25T06:45:38;2.45;;;1.85;;
56712;SDS011;42589;45.536;9.032;2023-04-25T06:48:39;4.50;;;1.50;;
56712;SDS011;42589;45.536;9.032;2023-04-25T06:51:40;4.07;;;1.98;;
56712;SDS011;42589;45.536;9.032;2023-04-25T06:54:41;2.80;;;1.75;;
56712;SDS011;42589;45.536;9.032;2023-04-25T06:57:43;3.75;;;2.00;;
56712;SDS011;42589;45.536;9.032;2023-04-25T07:00:44;4.18;;;1.90;;
56712;SDS011;42589;45.536;9.032;2023-04-25T07:03:45;6.90;;;2.30;;
56712;SDS011;42589;45.536;9.032;2023-04-25T07:06:48;3.53;;;2.10;;
56712;SDS011;42589;45.536;9.032;2023-04-25T07:09:49;2.03;;;1.73;;
56712;SDS011;42589;45.536;9.032;2023-04-25T07:12:50;2.15;;;1.63;;
56712;SDS011;42589;45.536;9.032;2023-04-25T07:15:51;2.53;;;1.77;;
56712;SDS011;42589;45.536;9.032;2023-04-25T07:18:52;2.85;;;2.05;;
56712;SDS011;42589;45.536;9.032;2023-04-25T07:21:53;2.25;;;2.00;;
56712;SDS011;42589;45.536;9.032;2023-04-25T07:24:54;2.00;;;1.77;;
56712;SDS011;42589;45.536;9.032;2023-04-25T07:27:55;2.33;;;1.67;;
56712;SDS011;42589;45.536;9.032;2023-04-25T07:30:59;4.70;;;1.95;;
56712;SDS011;42589;45.536;9.032;2023-04-25T07:34:00;1.60;;;1.50;;
56712;SDS011;42589;45.536;9.032;2023-04-25T07:37:00;2.92;;;1.83;;
56712;SDS011;42589;45.536;9.032;2023-04-25T07:40:04;1.95;;;1.67;;
56712;SDS011;42589;45.536;9.032;2023-04-25T07:43:05;2.05;;;1.85;;
56712;SDS011;42589;45.536;9.032;2023-04-25T07:46:09;5.00;;;1.88;;
56712;SDS011;42589;45.536;9.032;2023-04-25T07:49:13;3.22;;;1.90;;
56712;SDS011;42589;45.536;9.032;2023-04-25T07:52:24;2.55;;;1.83;;
56712;SDS011;42589;45.536;9.032;2023-04-25T07:55:43;3.28;;;1.85;;
56712;SDS011;42589;45.536;9.032;2023-04-25T07:58:46;2.75;;;2.10;;
56712;SDS011;42589;45.536;9.032;2023-04-25T08:01:47;4.97;;;2.10;;
56712;SDS011;42589;45.536;9.032;2023-04-25T08:04:48;2.58;;;1.90;;
56712;SDS011;42589;45.536;9.032;2023-04-25T08:07:49;2.45;;;2.08;;
56712;SDS011;42589;45.536;9.032;2023-04-25T08:10:50;4.22;;;2.42;;
56712;SDS011;42589;45.536;9.032;2023-04-25T08:13:51;2.40;;;2.00;;
56712;SDS011;42589;45.536;9.032;2023-04-25T08:16:51;4.07;;;2.72;;
56712;SDS011;42589;45.536;9.032;2023-04-25T08:19:52;2.80;;;2.38;;
56712;SDS011;42589;45.536;9.032;2023-04-25T08:22:53;5.32;;;2.63;;
56712;SDS011;42589;45.536;9.032;2023-04-25T08:25:54;3.10;;;2.72;;
56712;SDS011;42589;45.536;9.032;2023-04-25T08:28:55;2.53;;;2.33;;
56712;SDS011;42589;45.536;9.032;2023-04-25T08:31:57;7.25;;;3.08;;
56712;SDS011;42589;45.536;9.032;2023-04-25T08:34:58;3.58;;;2.60;;
56712;SDS011;42589;45.536;9.032;2023-04-25T08:37:59;3.13;;;2.50;;
56712;SDS011;42589;45.536;9.032;2023-04-25T08:41:00;2.83;;;2.50;;
56712;SDS011;42589;45.536;9.032;2023-04-25T08:44:02;4.22;;;2.60;;
56712;SDS011;42589;45.536;9.032;2023-04-25T08:47:04;4.97;;;2.42;;
56712;SDS011;42589;45.536;9.032;2023-04-25T08:50:07;3.00;;;2.70;;
56712;SDS011;42589;45.536;9.032;2023-04-25T08:53:08;3.90;;;3.10;;
56712;SDS011;42589;45.536;9.032;2023-04-25T08:56:10;4.13;;;2.85;;
56712;SDS011;42589;45.536;9.032;2023-04-25T08:59:13;3.83;;;3.20;;
56712;SDS011;42589;45.536;9.032;2023-04-25T09:02:14;3.95;;;3.15;;
56712;SDS011;42589;45.536;9.032;2023-04-25T09:05:17;5.38;;;3.38;;
56712;SDS011;42589;45.536;9.032;2023-04-25T09:08:19;3.72;;;2.20;;
56712;SDS011;42589;45.536;9.032;2023-04-25T09:11:19;4.80;;;2.83;;
56712;SDS011;42589;45.536;9.032;2023-04-25T09:14:20;5.40;;;3.25;;
56712;SDS011;42589;45.536;9.032;2023-04-25T09:17:22;4.60;;;2.65;;
56712;SDS011;42589;45.536;9.032;2023-04-25T09:20:23;5.60;;;2.40;;
56712;SDS011;42589;45.536;9.032;2023-04-25T09:23:24;4.72;;;2.85;;
56712;SDS011;42589;45.536;9.032;2023-04-25T09:26:25;2.80;;;2.50;;
56712;SDS011;42589;45.536;9.032;2023-04-25T09:29:30;6.20;;;2.78;;
56712;SDS011;42589;45.536;9.032;2023-04-25T09:32:32;2.83;;;2.47;;
56712;SDS011;42589;45.536;9.032;2023-04-25T09:35:40;12.70;;;6.03;;
56712;SDS011;42589;45.536;9.032;2023-04-25T09:38:43;7.70;;;3.00;;
56712;SDS011;42589;45.536;9.032;2023-04-25T09:41:47;6.25;;;2.70;;
56712;SDS011;42589;45.536;9.032;2023-04-25T09:44:54;6.20;;;2.60;;
56712;SDS011;42589;45.536;9.032;2023-04-25T09:47:56;5.43;;;2.10;;
56712;SDS011;42589;45.536;9.032;2023-04-25T09:51:04;2.88;;;2.33;;
56712;SDS011;42589;45.536;9.032;2023-04-25T09:54:09;4.32;;;2.47;;
56712;SDS011;42589;45.536;9.032;2023-04-25T09:57:15;3.92;;;2.28;;
56712;SDS011;42589;45.536;9.032;2023-04-25T10:00:21;2.85;;;2.08;;
56712;SDS011;42589;45.536;9.032;2023-04-25T10:03:23;2.50;;;2.30;;
56712;SDS011;42589;45.536;9.032;2023-04-25T10:06:26;3.35;;;2.10;;
56712;SDS011;42589;45.536;9.032;2023-04-25T10:09:28;6.63;;;3.00;;
56712;SDS011;42589;45.536;9.032;2023-04-25T10:12:33;4.22;;;2.83;;
56712;SDS011;42589;45.536;9.032;2023-04-25T10:15:35;4.90;;;2.50;;
56712;SDS011;42589;45.536;9.032;2023-04-25T10:18:38;7.40;;;2.53;;
56712;SDS011;42589;45.536;9.032;2023-04-25T10:21:44;4.47;;;2.65;;
56712;SDS011;42589;45.536;9.032;2023-04-25T10:24:50;4.70;;;2.40;;
56712;SDS011;42589;45.536;9.032;2023-04-25T10:27:52;6.65;;;3.03;;
56712;SDS011;42589;45.536;9.032;2023-04-25T10:30:57;4.32;;;3.25;;
56712;SDS011;42589;45.536;9.032;2023-04-25T10:34:02;7.32;;;3.38;;
56712;SDS011;42589;45.536;9.032;2023-04-25T10:37:05;3.90;;;2.60;;
56712;SDS011;42589;45.536;9.032;2023-04-25T10:46:30;5.15;;;2.88;;
56712;SDS011;42589;45.536;9.032;2023-04-25T10:49:35;4.32;;;2.83;;
56712;SDS011;42589;45.536;9.032;2023-04-25T10:52:40;4.53;;;2.78;;
56712;SDS011;42589;45.536;9.032;2023-04-25T10:55:51;5.65;;;4.50;;
56712;SDS011;42589;45.536;9.032;2023-04-25T11:02:15;3.85;;;2.75;;
56712;SDS011;42589;45.536;9.032;2023-04-25T11:08:25;3.63;;;2.88;;
56712;SDS011;42589;45.536;9.032;2023-04-25T11:11:53;5.40;;;2.90;;
56712;SDS011;42589;45.536;9.032;2023-04-25T11:15:02;6.50;;;3.20;;
56712;SDS011;42589;45.536;9.032;2023-04-25T11:18:04;3.60;;;2.78;;
56712;SDS011;42589;45.536;9.032;2023-04-25T11:21:06;8.13;;;2.95;;
56712;SDS011;42589;45.536;9.032;2023-04-25T11:24:07;6.85;;;3.03;;
56712;SDS011;42589;45.536;9.032;2023-04-25T11:27:08;6.28;;;2.90;;
56712;SDS011;42589;45.536;9.032;2023-04-25T11:30:12;3.88;;;2.75;;
56712;SDS011;42589;45.536;9.032;2023-04-25T11:33:22;8.25;;;3.28;;
56712;SDS011;42589;45.536;9.032;2023-04-25T11:36:24;4.75;;;2.80;;
56712;SDS011;42589;45.536;9.032;2023-04-25T11:39:25;5.20;;;2.92;;
56712;SDS011;42589;45.536;9.032;2023-04-25T11:42:27;5.85;;;3.08;;
56712;SDS011;42589;45.536;9.032;2023-04-25T11:45:28;4.40;;;2.60;;
56712;SDS011;42589;45.536;9.032;2023-04-25T11:48:36;6.20;;;3.28;;
56712;SDS011;42589;45.536;9.032;2023-04-25T11:51:43;4.93;;;2.95;;
56712;SDS011;42589;45.536;9.032;2023-04-25T11:54:47;4.53;;;3.13;;
56712;SDS011;42589;45.536;9.032;2023-04-25T11:57:49;5.30;;;3.40;;
56712;SDS011;42589;45.536;9.032;2023-04-25T12:00:52;4.60;;;2.42;;
56712;SDS011;42589;45.536;9.032;2023-04-25T12:03:53;3.65;;;2.38;;
56712;SDS011;42589;45.536;9.032;2023-04-25T12:06:55;4.00;;;2.50;;
56712;SDS011;42589;45.536;9.032;2023-04-25T12:09:56;4.30;;;2.28;;
56712;SDS011;42589;45.536;9.032;2023-04-25T12:12:57;2.72;;;2.00;;
56712;SDS011;42589;45.536;9.032;2023-04-25T12:15:59;3.78;;;2.17;;
56712;SDS011;42589;45.536;9.032;2023-04-25T12:19:00;5.53;;;2.20;;
56712;SDS011;42589;45.536;9.032;2023-04-25T12:22:01;6.10;;;2.83;;
56712;SDS011;42589;45.536;9.032;2023-04-25T12:25:04;6.07;;;3.08;;
56712;SDS011;42589;45.536;9.032;2023-04-25T12:28:18;4.65;;;2.90;;
56712;SDS011;42589;45.536;9.032;2023-04-25T12:31:30;5.00;;;2.60;;
56712;SDS011;42589;45.536;9.032;2023-04-25T12:34:32;5.20;;;2.38;;
56712;SDS011;42589;45.536;9.032;2023-04-25T12:37:35;3.35;;;2.17;;
56712;SDS011;42589;45.536;9.032;2023-04-25T12:40:37;3.88;;;2.58;;
56712;SDS011;42589;45.536;9.032;2023-04-25T12:43:38;3.22;;;2.28;;
56712;SDS011;42589;45.536;9.032;2023-04-25T12:46:38;3.05;;;2.15;;
56712;SDS011;42589;45.536;9.032;2023-04-25T12:49:39;4.80;;;2.55;;
56712;SDS011;42589;45.536;9.032;2023-04-25T12:52:43;13.02;;;3.50;;
56712;SDS011;42589;45.536;9.032;2023-04-25T12:55:44;11.48;;;3.75;;
56712;SDS011;42589;45.536;9.032;2023-04-25T12:58:47;9.60;;;3.50;;
56712;SDS011;42589;45.536;9.032;2023-04-25T13:01:49;4.82;;;2.67;;
56712;SDS011;42589;45.536;9.032;2023-04-25T13:04:52;2.95;;;1.60;;
56712;SDS011;42589;45.536;9.032;2023-04-25T13:07:54;3.47;;;1.83;;
56712;SDS011;42589;45.536;9.032;2023-04-25T13:10:54;3.63;;;2.17;;
56712;SDS011;42589;45.536;9.032;2023-04-25T13:13:56;4.80;;;2.15;;
56712;SDS011;42589;45.536;9.032;2023-04-25T13:16:57;5.57;;;2.33;;
56712;SDS011;42589;45.536;9.032;2023-04-25T13:19:58;3.75;;;2.17;;
56712;SDS011;42589;45.536;9.032;2023-04-25T13:23:00;4.15;;;2.50;;
56712;SDS011;42589;45.536;9.032;2023-04-25T13:26:01;11.70;;;3.38;;
56712;SDS011;42589;45.536;9.032;2023-04-25T13:29:02;4.05;;;2.35;;
56712;SDS011;42589;45.536;9.032;2023-04-25T13:32:07;2.88;;;1.73;;
56712;SDS011;42589;45.536;9.032;2023-04-25T13:35:11;5.18;;;2.22;;
56712;SDS011;42589;45.536;9.032;2023-04-25T13:38:13;1.75;;;1.65;;
56712;SDS011;42589;45.536;9.032;2023-04-25T13:41:14;3.28;;;1.90;;
56712;SDS011;42589;45.536;9.032;2023-04-25T13:44:19;2.35;;;1.40;;
56712;SDS011;42589;45.536;9.032;2023-04-25T13:47:19;2.58;;;1.30;;
56712;SDS011;42589;45.536;9.032;2023-04-25T13:50:21;2.35;;;1.17;;
56712;SDS011;42589;45.536;9.032;2023-04-25T13:53:21;1.63;;;1.10;;
56712;SDS011;42589;45.536;9.032;2023-04-25T13:56:23;3.22;;;1.30;;
56712;SDS011;42589;45.536;9.032;2023-04-25T13:59:25;2.42;;;1.30;;
56712;SDS011;42589;45.536;9.032;2023-04-25T14:02:26;1.58;;;1.42;;
56712;SDS011;42589;45.536;9.032;2023-04-25T14:05:28;2.65;;;1.30;;
56712;SDS011;42589;45.536;9.032;2023-04-25T14:08:28;1.30;;;1.20;;
56712;SDS011;42589;45.536;9.032;2023-04-25T14:11:29;1.20;;;1.10;;
56712;SDS011;42589;45.536;9.032;2023-04-25T14:14:30;1.67;;;1.17;;
56712;SDS011;42589;45.536;9.032;2023-04-25T14:17:31;1.58;;;1.10;;
56712;SDS011;42589;45.536;9.032;2023-04-25T14:20:32;1.40;;;1.00;;
56712;SDS011;42589;45.536;9.032;2023-04-25T14:23:32;1.42;;;1.13;;
56712;SDS011;42589;45.536;9.032;2023-04-25T14:26:34;2.70;;;1.20;;
56712;SDS011;42589;45.536;9.032;2023-04-25T14:29:35;2.55;;;1.30;;
56712;SDS011;42589;45.536;9.032;2023-04-25T14:32:38;2.90;;;1.20;;
56712;SDS011;42589;45.536;9.032;2023-04-25T14:36:00;2.58;;;1.20;;
56712;SDS011;42589;45.536;9.032;2023-04-25T14:39:00;1.45;;;1.27;;
56712;SDS011;42589;45.536;9.032;2023-04-25T14:42:01;2.67;;;1.25;;
56712;SDS011;42589;45.536;9.032;2023-04-25T14:45:03;1.25;;;1.05;;
56712;SDS011;42589;45.536;9.032;2023-04-25T14:48:04;1.33;;;1.23;;
56712;SDS011;42589;45.536;9.032;2023-04-25T14:51:05;2.45;;;1.20;;
56712;SDS011;42589;45.536;9.032;2023-04-25T14:54:06;1.80;;;1.20;;
56712;SDS011;42589;45.536;9.032;2023-04-25T14:57:07;2.70;;;1.20;;
56712;SDS011;42589;45.536;9.032;2023-04-25T15:00:09;2.45;;;1.20;;
56712;SDS011;42589;45.536;9.032;2023-04-25T15:03:13;2.55;;;1.35;;
56712;SDS011;42589;45.536;9.032;2023-04-25T15:06:16;3.20;;;1.95;;
56712;SDS011;42589;45.536;9.032;2023-04-25T15:09:16;5.15;;;1.10;;
56712;SDS011;42589;45.536;9.032;2023-04-25T15:12:18;2.80;;;1.20;;
56712;SDS011;42589;45.536;9.032;2023-04-25T15:15:22;3.92;;;1.10;;
56712;SDS011;42589;45.536;9.032;2023-04-25T15:18:23;3.22;;;1.20;;
56712;SDS011;42589;45.536;9.032;2023-04-25T15:21:25;2.25;;;1.10;;
56712;SDS011;42589;45.536;9.032;2023-04-25T15:24:26;5.43;;;2.30;;
56712;SDS011;42589;45.536;9.032;2023-04-25T15:27:27;3.35;;;1.30;;
56712;SDS011;42589;45.536;9.032;2023-04-25T15:30:28;3.40;;;1.17;;
56712;SDS011;42589;45.536;9.032;2023-04-25T15:33:29;6.05;;;1.25;;
56712;SDS011;42589;45.536;9.032;2023-04-25T15:36:30;1.20;;;1.13;;
56712;SDS011;42589;45.536;9.032;2023-04-25T15:39:31;3.70;;;1.08;;
56712;SDS011;42589;45.536;9.032;2023-04-25T15:42:32;2.90;;;0.90;;
56712;SDS011;42589;45.536;9.032;2023-04-25T15:45:33;1.00;;;1.00;;
56712;SDS011;42589;45.536;9.032;2023-04-25T15:48:36;2.22;;;0.98;;
56712;SDS011;42589;45.536;9.032;2023-04-25T15:51:37;2.25;;;1.30;;
56712;SDS011;42589;45.536;9.032;2023-04-25T15:54:38;2.83;;;0.93;;
56712;SDS011;42589;45.536;9.032;2023-04-25T15:57:39;1.75;;;0.95;;
56712;SDS011;42589;45.536;9.032;2023-04-25T16:00:41;1.42;;;0.77;;
56712;SDS011;42589;45.536;9.032;2023-04-25T16:03:42;1.73;;;0.80;;
56712;SDS011;42589;45.536;9.032;2023-04-25T16:06:43;2.50;;;0.80;;
56712;SDS011;42589;45.536;9.032;2023-04-25T16:09:43;1.42;;;0.85;;
56712;SDS011;42589;45.536;9.032;2023-04-25T16:12:46;3.40;;;0.80;;
56712;SDS011;42589;45.536;9.032;2023-04-25T16:15:47;2.35;;;0.77;;
56712;SDS011;42589;45.536;9.032;2023-04-25T16:18:48;0.95;;;0.70;;
56712;SDS011;42589;45.536;9.032;2023-04-25T16:21:50;2.67;;;1.00;;
56712;SDS011;42589;45.536;9.032;2023-04-25T16:24:51;2.17;;;0.88;;
56712;SDS011;42589;45.536;9.032;2023-04-25T16:27:53;1.33;;;1.00;;
56712;SDS011;42589;45.536;9.032;2023-04-25T16:30:53;1.60;;;0.80;;
56712;SDS011;42589;45.536;9.032;2023-04-25T16:33:54;1.67;;;0.90;;
56712;SDS011;42589;45.536;9.032;2023-04-25T16:36:56;1.25;;;0.85;;
56712;SDS011;42589;45.536;9.032;2023-04-25T16:39:57;2.47;;;1.10;;
56712;SDS011;42589;45.536;9.032;2023-04-25T16:42:58;2.42;;;0.98;;
56712;SDS011;42589;45.536;9.032;2023-04-25T16:45:59;1.38;;;0.90;;
56712;SDS011;42589;45.536;9.032;2023-04-25T16:49:00;2.53;;;1.00;;
56712;SDS011;42589;45.536;9.032;2023-04-25T16:52:01;1.88;;;0.80;;
56712;SDS011;42589;45.536;9.032;2023-04-25T16:55:03;1.23;;;0.88;;
56712;SDS011;42589;45.536;9.032;2023-04-25T16:58:04;1.10;;;0.85;;
56712;SDS011;42589;45.536;9.032;2023-04-25T17:01:06;1.00;;;0.90;;
56712;SDS011;42589;45.536;9.032;2023-04-25T17:04:07;2.13;;;0.98;;
56712;SDS011;42589;45.536;9.032;2023-04-25T17:07:10;3.08;;;1.05;;
56712;SDS011;42589;45.536;9.032;2023-04-25T17:10:11;1.88;;;1.13;;
56712;SDS011;42589;45.536;9.032;2023-04-25T17:13:12;2.35;;;1.25;;
56712;SDS011;42589;45.536;9.032;2023-04-25T17:16:14;2.35;;;1.27;;
56712;SDS011;42589;45.536;9.032;2023-04-25T17:19:20;2.03;;;0.90;;
56712;SDS011;42589;45.536;9.032;2023-04-25T17:22:21;2.33;;;1.20;;
56712;SDS011;42589;45.536;9.032;2023-04-25T17:25:23;1.35;;;1.20;;
56712;SDS011;42589;45.536;9.032;2023-04-25T17:28:24;3.92;;;1.05;;
56712;SDS011;42589;45.536;9.032;2023-04-25T17:31:26;2.80;;;1.30;;
56712;SDS011;42589;45.536;9.032;2023-04-25T17:34:27;1.73;;;1.33;;
56712;SDS011;42589;45.536;9.032;2023-04-25T17:37:28;2.15;;;1.00;;
56712;SDS011;42589;45.536;9.032;2023-04-25T17:40:28;1.67;;;1.30;;
56712;SDS011;42589;45.536;9.032;2023-04-25T17:43:30;2.80;;;1.35;;
56712;SDS011;42589;45.536;9.032;2023-04-25T17:46:33;2.22;;;1.20;;
56712;SDS011;42589;45.536;9.032;2023-04-25T17:49:34;2.70;;;1.30;;
56712;SDS011;42589;45.536;9.032;2023-04-25T17:52:35;1.48;;;1.38;;
56712;SDS011;42589;45.536;9.032;2023-04-25T17:55:37;1.25;;;1.15;;
56712;SDS011;42589;45.536;9.032;2023-04-25T17:58:39;1.40;;;1.13;;
56712;SDS011;42589;45.536;9.032;2023-04-25T18:01:40;1.77;;;1.27;;
56712;SDS011;42589;45.536;9.032;2023-04-25T18:04:41;1.38;;;1.10;;
56712;SDS011;42589;45.536;9.032;2023-04-25T18:07:41;2.30;;;1.15;;
56712;SDS011;42589;45.536;9.032;2023-04-25T18:10:42;1.45;;;1.35;;
56712;SDS011;42589;45.536;9.032;2023-04-25T18:13:42;3.85;;;1.98;;
56712;SDS011;42589;45.536;9.032;2023-04-25T18:16:47;4.03;;;2.20;;
56712;SDS011;42589;45.536;9.032;2023-04-25T18:19:49;3.55;;;2.10;;
56712;SDS011;42589;45.536;9.032;2023-04-25T18:22:50;2.38;;;1.98;;
56712;SDS011;42589;45.536;9.032;2023-04-25T18:25:51;2.72;;;1.85;;
56712;SDS011;42589;45.536;9.032;2023-04-25T18:28:53;3.45;;;2.20;;
56712;SDS011;42589;45.536;9.032;2023-04-25T18:31:54;2.50;;;1.85;;